Time;durP1;ratioP1;P1;durP2;ratioP2;P2;SDS_P1;SDS_P2;PMS_P1;PMS_P2;Temp;Humidity;BMP_temperature;BMP_pressure;BME280_temperature;BME280_humidity;BME280_pressure;Samples;Min_cycle;Max_cycle;Signal;HPM_P1;HPM_P2
2023/07/07 00:01:20;;;;;;;0.20;0.20;;;14.50;99.90;;;;;;5040955;28;20056;-79
2023/07/07 00:03:46;;;;;;;0.20;0.20;;;14.50;99.90;;;;;;5025686;28;20049;-80
2023/07/07 00:06:12;;;;;;;0.15;0.15;;;14.50;99.90;;;;;;5030218;28;20045;-79
2023/07/07 00:08:37;;;;;;;0.10;0.10;;;14.50;99.90;;;;;;5045135;28;20045;-79
2023/07/07 00:11:04;;;;;;;0.20;0.20;;;14.40;99.90;;;;;;5019354;28;20132;-79
2023/07/07 00:13:30;;;;;;;0.20;0.20;;;14.40;99.90;;;;;;5041469;28;20041;-79
2023/07/07 00:16:00;;;;;;;0.20;0.20;;;14.40;99.90;;;;;;5024465;28;20041;-79
2023/07/07 00:18:26;;;;;;;0.15;0.15;;;14.40;99.90;;;;;;5045963;28;20037;-79
2023/07/07 00:20:58;;;;;;;0.20;0.20;;;14.40;99.90;;;;;;5029807;28;20048;-79
2023/07/07 00:23:25;;;;;;;0.20;0.20;;;14.40;99.90;;;;;;5038798;28;20390;-80
2023/07/07 00:26:05;;;;;;;0.20;0.20;;;14.30;99.90;;;;;;5021513;28;20045;-80
2023/07/07 00:28:32;;;;;;;0.22;0.22;;;14.30;99.90;;;;;;5042592;28;20123;-79
2023/07/07 00:30:58;;;;;;;0.10;0.10;;;14.30;99.90;;;;;;5029436;28;20454;-79
2023/07/07 00:33:24;;;;;;;0.10;0.10;;;14.30;99.90;;;;;;5020844;28;20054;-79
2023/07/07 00:35:50;;;;;;;0.15;0.15;;;14.20;99.90;;;;;;5041270;28;20128;-79
2023/07/07 00:38:18;;;;;;;0.10;0.10;;;14.30;99.90;;;;;;5030408;28;20045;-79
2023/07/07 00:40:44;;;;;;;0.20;0.20;;;14.20;99.90;;;;;;5023108;28;20044;-79
2023/07/07 00:43:15;;;;;;;0.17;0.17;;;14.20;99.90;;;;;;5024473;28;20048;-79
2023/07/07 00:45:40;;;;;;;0.20;0.20;;;14.20;99.90;;;;;;5028987;28;20040;-79
2023/07/07 00:48:19;;;;;;;0.10;0.10;;;14.20;99.90;;;;;;5029151;28;20036;-79
2023/07/07 00:51:02;;;;;;;0.20;0.20;;;14.10;99.90;;;;;;5025698;28;20528;-79
2023/07/07 00:53:29;;;;;;;0.13;0.13;;;14.10;99.90;;;;;;5025203;28;20079;-79
2023/07/07 00:56:00;;;;;;;0.20;0.20;;;14.10;99.90;;;;;;5049088;28;20048;-79
2023/07/07 00:58:26;;;;;;;0.20;0.20;;;14.10;99.90;;;;;;5032306;28;20052;-79
2023/07/07 01:00:59;;;;;;;0.10;0.10;;;14.10;99.90;;;;;;5035620;28;20048;-80
2023/07/07 01:03:31;;;;;;;0.20;0.20;;;14.10;99.90;;;;;;5026566;28;20047;-79
2023/07/07 01:05:59;;;;;;;0.20;0.20;;;14.00;99.90;;;;;;5026803;28;20045;-79
2023/07/07 01:08:25;;;;;;;0.17;0.17;;;14.00;99.90;;;;;;5030034;28;20083;-79
2023/07/07 01:10:51;;;;;;;0.10;0.10;;;14.00;99.90;;;;;;5032625;28;20048;-79
2023/07/07 01:13:17;;;;;;;0.20;0.20;;;14.00;99.90;;;;;;5045062;28;20063;-79
2023/07/07 01:16:19;;;;;;;0.20;0.20;;;14.00;99.90;;;;;;5030758;28;20045;-79
2023/07/07 01:18:56;;;;;;;0.20;0.20;;;14.00;99.90;;;;;;5027760;28;20775;-79
2023/07/07 01:21:37;;;;;;;0.10;0.10;;;13.90;99.90;;;;;;5034484;28;20128;-79
2023/07/07 01:24:24;;;;;;;0.10;0.10;;;13.90;99.90;;;;;;5032865;28;20064;-78
2023/07/07 01:27:03;;;;;;;0.13;0.13;;;13.90;99.90;;;;;;5047650;28;20041;-79
2023/07/07 01:30:14;;;;;;;0.10;0.10;;;13.90;99.90;;;;;;5033612;28;20105;-79
2023/07/07 01:32:41;;;;;;;0.20;0.20;;;13.90;99.90;;;;;;5010740;28;20052;-79
2023/07/07 01:35:18;;;;;;;0.10;0.10;;;13.80;99.90;;;;;;5049312;28;20037;-79
2023/07/07 01:38:29;;;;;;;0.20;0.20;;;13.80;99.90;;;;;;5051861;28;20083;-79
2023/07/07 01:41:16;;;;;;;0.10;0.10;;;13.80;99.90;;;;;;5028355;28;20485;-79
2023/07/07 01:44:10;;;;;;;0.20;0.20;;;13.80;99.90;;;;;;5048059;28;20045;-79
2023/07/07 01:47:11;;;;;;;0.20;0.20;;;13.80;99.90;;;;;;5045182;28;20102;-79
2023/07/07 01:49:56;;;;;;;0.20;0.20;;;13.70;99.90;;;;;;5048920;28;20057;-79
2023/07/07 01:52:33;;;;;;;0.17;0.17;;;13.70;99.90;;;;;;5044338;28;20048;-79
2023/07/07 01:55:20;;;;;;;0.10;0.10;;;13.70;99.90;;;;;;5045423;28;20045;-79
2023/07/07 01:57:49;;;;;;;0.10;0.10;;;13.70;99.90;;;;;;5045333;28;20059;-78
2023/07/07 02:00:16;;;;;;;0.20;0.20;;;13.70;99.90;;;;;;5048274;28;20048;-78
2023/07/07 02:02:42;;;;;;;0.13;0.13;;;13.70;99.90;;;;;;5047421;28;20057;-79
2023/07/07 02:05:09;;;;;;;0.20;0.20;;;13.70;99.90;;;;;;5055720;28;20250;-79
2023/07/07 02:07:35;;;;;;;0.20;0.20;;;13.70;99.90;;;;;;5047703;28;20492;-79
2023/07/07 02:10:01;;;;;;;0.20;0.20;;;13.70;99.90;;;;;;5046274;28;20037;-79
2023/07/07 02:12:26;;;;;;;0.20;0.20;;;13.60;99.90;;;;;;5039438;28;20037;-79
2023/07/07 02:14:52;;;;;;;0.20;0.20;;;13.60;99.90;;;;;;5042435;28;20033;-78
2023/07/07 02:17:18;;;;;;;0.20;0.20;;;13.60;99.90;;;;;;5043482;28;20045;-79
2023/07/07 02:19:44;;;;;;;0.10;0.10;;;13.60;99.90;;;;;;5050405;28;20045;-78
2023/07/07 02:22:10;;;;;;;0.13;0.13;;;13.60;99.90;;;;;;5046162;28;20140;-78
2023/07/07 02:24:36;;;;;;;0.10;0.10;;;13.60;99.90;;;;;;5045322;28;20088;-78
2023/07/07 02:27:03;;;;;;;0.13;0.13;;;13.60;99.90;;;;;;5045980;28;20040;-78
2023/07/07 02:29:28;;;;;;;0.10;0.10;;;13.60;99.90;;;;;;5048229;28;20048;-79
2023/07/07 02:31:54;;;;;;;0.10;0.10;;;13.60;99.90;;;;;;5049406;28;20515;-79
2023/07/07 02:34:20;;;;;;;0.20;0.20;;;13.60;99.90;;;;;;5049491;28;20415;-78
2023/07/07 02:36:45;;;;;;;0.20;0.20;;;13.60;99.90;;;;;;5028507;28;20036;-78
2023/07/07 02:39:11;;;;;;;0.20;0.20;;;13.50;99.90;;;;;;5048833;28;20469;-78
2023/07/07 02:41:37;;;;;;;0.20;0.20;;;13.50;99.90;;;;;;5050113;28;20064;-78
2023/07/07 02:44:02;;;;;;;0.17;0.17;;;13.50;99.90;;;;;;5030510;28;20062;-79
2023/07/07 02:46:28;;;;;;;0.20;0.20;;;13.50;99.90;;;;;;5029814;28;20449;-78
2023/07/07 02:48:54;;;;;;;0.10;0.10;;;13.50;99.90;;;;;;5030382;28;20055;-78
2023/07/07 02:51:20;;;;;;;0.20;0.20;;;13.50;99.90;;;;;;5047562;28;20437;-78
2023/07/07 02:53:45;;;;;;;0.20;0.20;;;13.50;99.90;;;;;;5043678;28;20068;-78
2023/07/07 02:56:11;;;;;;;0.10;0.10;;;13.40;99.90;;;;;;5028388;28;20176;-78
2023/07/07 02:58:37;;;;;;;0.20;0.20;;;13.40;99.90;;;;;;5026068;28;20044;-78
2023/07/07 03:01:15;;;;;;;0.13;0.13;;;13.40;99.90;;;;;;5027550;28;20045;-78
2023/07/07 03:03:48;;;;;;;0.20;0.20;;;13.40;99.90;;;;;;5021138;28;20051;-78
2023/07/07 03:06:22;;;;;;;0.20;0.20;;;13.40;99.90;;;;;;5027582;28;20503;-78
2023/07/07 03:08:48;;;;;;;0.20;0.20;;;13.40;99.90;;;;;;5029490;28;20041;-78
2023/07/07 03:11:17;;;;;;;0.20;0.20;;;13.40;99.90;;;;;;5047064;28;20476;-78
2023/07/07 03:13:45;;;;;;;0.20;0.20;;;13.40;99.90;;;;;;5028304;28;20033;-78
2023/07/07 03:16:13;;;;;;;0.20;0.20;;;13.40;99.90;;;;;;5024866;28;20107;-78
2023/07/07 03:18:40;;;;;;;0.20;0.20;;;13.30;99.90;;;;;;5017358;28;20377;-77
2023/07/07 03:21:07;;;;;;;0.20;0.20;;;13.30;99.90;;;;;;5048597;28;20044;-78
2023/07/07 03:23:33;;;;;;;0.10;0.10;;;13.30;99.90;;;;;;5027429;28;20091;-78
2023/07/07 03:26:28;;;;;;;0.20;0.20;;;13.30;99.90;;;;;;5043585;28;20033;-78
2023/07/07 03:28:54;;;;;;;0.17;0.17;;;13.30;99.90;;;;;;5008632;28;20552;-78
2023/07/07 03:31:25;;;;;;;0.20;0.20;;;13.30;99.90;;;;;;5049652;28;20390;-78
2023/07/07 03:33:54;;;;;;;0.20;0.20;;;13.30;99.90;;;;;;5037942;28;20079;-78
2023/07/07 03:36:22;;;;;;;0.17;0.17;;;13.30;99.90;;;;;;5029853;28;20152;-78
2023/07/07 03:38:48;;;;;;;0.20;0.20;;;13.20;99.90;;;;;;5029573;28;20045;-78
2023/07/07 03:41:17;;;;;;;0.20;0.20;;;13.20;99.90;;;;;;5029637;28;20040;-78
2023/07/07 03:43:44;;;;;;;0.10;0.10;;;13.30;99.90;;;;;;5018571;28;20040;-78
2023/07/07 03:46:11;;;;;;;0.20;0.20;;;13.20;99.90;;;;;;5025277;28;20063;-78
2023/07/07 03:48:37;;;;;;;0.10;0.10;;;13.30;99.90;;;;;;5027255;28;20045;-78
2023/07/07 03:51:03;;;;;;;0.20;0.20;;;13.30;99.90;;;;;;5029308;28;20075;-79
2023/07/07 03:53:31;;;;;;;0.20;0.20;;;13.30;99.90;;;;;;5027819;28;20049;-78
2023/07/07 03:55:57;;;;;;;0.20;0.20;;;13.30;99.90;;;;;;5049442;28;20440;-78
2023/07/07 03:58:24;;;;;;;0.20;0.20;;;13.30;99.90;;;;;;5023985;28;20076;-78
2023/07/07 04:00:50;;;;;;;0.20;0.20;;;13.30;99.90;;;;;;5029373;28;20110;-79
2023/07/07 04:03:17;;;;;;;0.20;0.20;;;13.00;99.90;;;;;;5026226;28;20037;-78
2023/07/07 04:05:48;;;;;;;0.10;0.10;;;13.30;99.90;;;;;;5027435;28;20059;-78
2023/07/07 04:08:22;;;;;;;0.20;0.20;;;13.40;99.90;;;;;;5030630;28;20456;-78
2023/07/07 04:11:01;;;;;;;0.10;0.10;;;13.40;99.90;;;;;;5043903;28;20049;-79
2023/07/07 04:13:29;;;;;;;0.20;0.20;;;13.40;99.90;;;;;;5021269;28;20049;-78
2023/07/07 04:16:06;;;;;;;0.20;0.20;;;13.40;99.90;;;;;;5037435;28;20066;-77
2023/07/07 04:18:33;;;;;;;0.20;0.20;;;13.40;99.90;;;;;;5046012;28;20152;-78
2023/07/07 04:21:07;;;;;;;0.20;0.20;;;13.40;99.90;;;;;;5029970;28;20040;-78
2023/07/07 04:23:35;;;;;;;0.20;0.20;;;13.40;99.90;;;;;;5047421;28;20127;-78
2023/07/07 04:26:01;;;;;;;0.15;0.15;;;13.50;99.90;;;;;;5028544;28;20549;-78
2023/07/07 04:28:28;;;;;;;0.20;0.20;;;13.70;99.90;;;;;;5030510;28;20132;-77
2023/07/07 04:30:55;;;;;;;0.20;0.20;;;13.50;99.90;;;;;;5051401;28;20041;-77
2023/07/07 04:33:22;;;;;;;0.20;0.20;;;13.50;99.90;;;;;;5033649;28;20040;-77
2023/07/07 04:35:54;;;;;;;0.20;0.20;;;13.60;99.90;;;;;;5033776;28;20065;-77
2023/07/07 04:38:20;;;;;;;;;;;13.70;99.90;;;;;;5035517;28;20076;-78
2023/07/07 04:40:47;;;;;;;0.20;0.20;;;13.70;99.90;;;;;;5051602;28;19928;-78
2023/07/07 04:43:12;;;;;;;0.10;0.10;;;13.70;99.90;;;;;;5027388;28;20041;-77
2023/07/07 04:45:38;;;;;;;0.17;0.17;;;13.70;99.90;;;;;;5031304;28;20055;-78
2023/07/07 04:48:04;;;;;;;0.10;0.10;;;13.70;99.90;;;;;;5035063;28;20128;-78
2023/07/07 04:50:32;;;;;;;0.10;0.10;;;13.80;99.90;;;;;;5048181;28;20041;-78
2023/07/07 04:52:59;;;;;;;0.20;0.20;;;13.80;99.90;;;;;;5034896;28;20099;-78
2023/07/07 04:55:25;;;;;;;0.20;0.20;;;13.90;99.90;;;;;;5049765;28;20060;-78
2023/07/07 04:57:51;;;;;;;0.20;0.20;;;13.90;99.90;;;;;;5032641;28;20037;-77
2023/07/07 05:00:17;;;;;;;0.20;0.20;;;14.00;99.90;;;;;;5047771;28;20097;-78
2023/07/07 05:02:44;;;;;;;0.20;0.20;;;14.00;99.90;;;;;;5032815;28;20048;-77
2023/07/07 05:05:11;;;;;;;0.20;0.20;;;14.10;99.90;;;;;;5029781;28;20041;-78
2023/07/07 05:07:36;;;;;;;0.10;0.10;;;14.10;99.90;;;;;;5033589;28;20049;-78
2023/07/07 05:10:02;;;;;;;0.20;0.20;;;14.20;99.90;;;;;;5032056;28;20060;-79
2023/07/07 05:12:28;;;;;;;0.17;0.17;;;14.30;99.90;;;;;;5027706;28;20056;-78
2023/07/07 05:14:54;;;;;;;0.10;0.10;;;14.30;99.90;;;;;;5031339;28;20051;-78
2023/07/07 05:17:19;;;;;;;0.10;0.10;;;14.40;99.90;;;;;;5044598;28;20045;-78
2023/07/07 05:19:45;;;;;;;0.20;0.20;;;14.50;99.90;;;;;;5017521;28;20760;-77
2023/07/07 05:22:11;;;;;;;0.20;0.20;;;14.50;99.90;;;;;;5032654;28;20731;-77
2023/07/07 05:24:36;;;;;;;0.20;0.20;;;14.60;99.90;;;;;;5049859;28;20060;-77
2023/07/07 05:27:02;;;;;;;0.20;0.20;;;14.70;99.90;;;;;;5048607;28;20040;-78
2023/07/07 05:29:28;;;;;;;0.20;0.20;;;14.80;99.90;;;;;;5043609;28;20045;-77
2023/07/07 05:31:54;;;;;;;0.20;0.20;;;14.80;99.90;;;;;;5045852;28;20052;-78
2023/07/07 05:34:19;;;;;;;0.20;0.20;;;14.90;99.90;;;;;;5048113;28;20052;-79
2023/07/07 05:36:45;;;;;;;0.20;0.20;;;15.00;99.90;;;;;;5050849;28;20040;-77
2023/07/07 05:39:11;;;;;;;0.10;0.10;;;15.10;99.90;;;;;;5048961;28;20480;-78
2023/07/07 05:41:37;;;;;;;0.17;0.17;;;15.20;99.90;;;;;;5031859;28;20090;-78
2023/07/07 05:44:02;;;;;;;0.20;0.20;;;15.20;99.90;;;;;;5030916;28;20076;-78
2023/07/07 05:46:28;;;;;;;0.20;0.20;;;15.30;99.90;;;;;;5030933;28;20641;-78
2023/07/07 05:48:54;;;;;;;0.20;0.20;;;15.40;99.90;;;;;;5049746;28;20045;-78
2023/07/07 05:51:19;;;;;;;0.10;0.10;;;15.50;99.90;;;;;;5033991;28;20053;-79
2023/07/07 05:53:47;;;;;;;0.10;0.10;;;15.60;99.90;;;;;;5049980;28;20040;-78
2023/07/07 05:56:20;;;;;;;0.20;0.20;;;15.60;99.90;;;;;;5026816;28;20047;-78
2023/07/07 05:58:46;;;;;;;0.10;0.10;;;15.70;99.90;;;;;;5018065;28;20389;-78
2023/07/07 06:01:13;;;;;;;0.20;0.20;;;15.80;99.90;;;;;;5049367;28;20041;-79
2023/07/07 06:03:40;;;;;;;0.20;0.20;;;15.90;99.90;;;;;;5024882;28;20085;-77
2023/07/07 06:06:09;;;;;;;0.20;0.20;;;16.00;99.90;;;;;;5014546;28;20087;-78
2023/07/07 06:08:35;;;;;;;0.10;0.10;;;16.10;99.90;;;;;;5028636;28;20571;-78
2023/07/07 06:11:01;;;;;;;0.20;0.20;;;16.20;99.90;;;;;;5030021;28;20057;-78
2023/07/07 06:13:28;;;;;;;0.20;0.20;;;16.20;99.90;;;;;;5029806;28;20048;-79
2023/07/07 06:15:55;;;;;;;0.15;0.15;;;16.30;99.90;;;;;;5045495;28;20493;-78
2023/07/07 06:18:22;;;;;;;0.17;0.17;;;16.40;99.90;;;;;;5024280;28;20041;-79
2023/07/07 06:20:52;;;;;;;0.10;0.10;;;16.50;99.90;;;;;;5042889;28;20928;-79
2023/07/07 06:23:19;;;;;;;0.20;0.20;;;16.60;99.90;;;;;;5019964;28;20065;-79
2023/07/07 06:25:44;;;;;;;0.10;0.10;;;16.70;99.90;;;;;;5020433;28;20091;-79
2023/07/07 06:28:10;;;;;;;0.20;0.20;;;16.80;99.90;;;;;;5030001;28;20041;-86
2023/07/07 06:30:36;;;;;;;0.10;0.10;;;16.90;99.90;;;;;;5040106;28;20131;-87
2023/07/07 06:33:02;;;;;;;0.10;0.10;;;16.90;99.90;;;;;;5037336;28;20052;-84
2023/07/07 06:35:29;;;;;;;0.10;0.10;;;17.00;99.90;;;;;;5042311;28;20543;-89
2023/07/07 06:37:55;;;;;;;0.10;0.10;;;17.10;99.90;;;;;;5043775;28;20036;-86
2023/07/07 06:40:21;;;;;;;0.17;0.17;;;17.20;99.90;;;;;;5072128;28;20052;-88
2023/07/07 06:42:48;;;;;;;0.20;0.20;;;17.20;99.90;;;;;;5067403;28;20037;-85
2023/07/07 06:45:14;;;;;;;0.20;0.20;;;17.30;99.90;;;;;;5053569;28;20056;-88
2023/07/07 06:47:40;;;;;;;0.20;0.20;;;17.40;99.90;;;;;;5058450;28;20029;-85
2023/07/07 06:50:06;;;;;;;0.20;0.20;;;17.50;99.90;;;;;;5060354;28;20087;-86
2023/07/07 06:52:32;;;;;;;0.20;0.20;;;17.60;99.90;;;;;;5055342;28;20115;-87
2023/07/07 06:54:59;;;;;;;0.15;0.15;;;17.60;99.90;;;;;;5041401;28;20068;-86
2023/07/07 06:57:24;;;;;;;0.20;0.20;;;17.70;99.90;;;;;;5041669;28;20048;-86
2023/07/07 06:59:50;;;;;;;0.10;0.10;;;17.80;99.90;;;;;;5044161;28;20052;-85
2023/07/07 07:02:16;;;;;;;0.20;0.20;;;17.90;99.90;;;;;;5042533;28;20080;-86
2023/07/07 07:04:42;;;;;;;0.20;0.20;;;17.90;99.90;;;;;;5042804;28;20120;-85
2023/07/07 07:07:09;;;;;;;0.10;0.10;;;18.00;99.90;;;;;;5041267;28;20124;-86
2023/07/07 07:09:35;;;;;;;0.20;0.20;;;18.10;99.90;;;;;;5039399;28;20086;-85
2023/07/07 07:12:01;;;;;;;0.20;0.20;;;18.20;99.90;;;;;;5038588;28;20045;-85
2023/07/07 07:14:26;;;;;;;0.28;0.28;;;18.30;99.90;;;;;;5037852;28;20049;-85
2023/07/07 07:16:52;;;;;;;0.15;0.15;;;18.40;99.90;;;;;;5043583;28;20048;-85
2023/07/07 07:19:18;;;;;;;0.20;0.20;;;18.50;99.90;;;;;;5047822;28;20044;-86
2023/07/07 07:21:43;;;;;;;0.20;0.20;;;18.50;99.90;;;;;;5049786;28;20037;-86
2023/07/07 07:24:09;;;;;;;0.20;0.20;;;18.60;99.90;;;;;;5052127;28;20045;-86
2023/07/07 07:26:35;;;;;;;0.10;0.10;;;18.70;99.90;;;;;;5047538;28;20052;-85
2023/07/07 07:29:00;;;;;;;0.20;0.20;;;18.80;99.90;;;;;;5044979;28;20045;-87
2023/07/07 07:31:26;;;;;;;0.20;0.20;;;18.80;99.90;;;;;;5047777;28;20085;-86
2023/07/07 07:33:55;;;;;;;0.20;0.20;;;18.90;99.90;;;;;;5044848;28;20045;-85
2023/07/07 07:36:21;;;;;;;0.20;0.20;;;19.00;99.90;;;;;;5054553;28;20104;-86
2023/07/07 07:38:47;;;;;;;0.20;0.20;;;19.10;99.90;;;;;;5047989;28;20037;-86
2023/07/07 07:41:13;;;;;;;0.20;0.20;;;19.10;99.90;;;;;;5053598;28;20116;-85
2023/07/07 07:43:39;;;;;;;0.20;0.20;;;19.20;99.90;;;;;;5046982;28;20048;-84
2023/07/07 07:46:05;;;;;;;0.20;0.20;;;19.30;99.90;;;;;;5049187;28;20045;-86
2023/07/07 07:48:30;;;;;;;0.20;0.20;;;19.30;99.90;;;;;;5041999;28;20037;-84
2023/07/07 07:50:56;;;;;;;0.20;0.20;;;19.40;99.90;;;;;;5041386;28;20504;-85
2023/07/07 07:53:22;;;;;;;0.20;0.20;;;19.50;99.90;;;;;;5048785;28;20473;-85
2023/07/07 07:55:48;;;;;;;0.20;0.20;;;19.50;99.90;;;;;;5053663;28;20595;-85
2023/07/07 07:58:13;;;;;;;0.20;0.20;;;19.50;99.90;;;;;;5049026;28;20037;-85
2023/07/07 08:00:39;;;;;;;0.20;0.20;;;19.70;99.90;;;;;;5047219;28;20045;-86
2023/07/07 08:03:05;;;;;;;0.20;0.20;;;19.70;99.90;;;;;;5048053;28;20565;-83
2023/07/07 08:05:31;;;;;;;0.20;0.20;;;19.80;99.90;;;;;;5049881;28;20052;-86
2023/07/07 08:07:58;;;;;;;0.20;0.20;;;19.80;99.90;;;;;;5050197;28;20076;-86
2023/07/07 08:10:23;;;;;;;0.20;0.20;;;19.90;99.90;;;;;;5048452;28;20064;-86
2023/07/07 08:12:49;;;;;;;0.10;0.10;;;20.00;99.90;;;;;;5050237;28;20048;-85
2023/07/07 08:15:15;;;;;;;0.10;0.10;;;20.10;99.90;;;;;;5049254;28;20382;-84
2023/07/07 08:17:41;;;;;;;0.20;0.20;;;20.20;99.90;;;;;;5047962;28;20040;-86
2023/07/07 08:20:19;;;;;;;0.20;0.20;;;20.20;99.90;;;;;;5042712;28;20049;-84
2023/07/07 08:22:45;;;;;;;0.20;0.20;;;20.30;99.90;;;;;;5048128;28;20037;-85
2023/07/07 08:25:10;;;;;;;0.20;0.20;;;20.40;99.90;;;;;;5049381;28;20126;-87
2023/07/07 08:27:37;;;;;;;0.10;0.10;;;20.40;99.90;;;;;;5046798;28;20073;-86
2023/07/07 08:30:04;;;;;;;0.20;0.20;;;20.50;99.90;;;;;;5045529;28;20083;-84
2023/07/07 08:32:29;;;;;;;0.43;0.30;;;20.60;99.90;;;;;;5047818;28;20114;-85
2023/07/07 08:34:55;;;;;;;0.20;0.20;;;20.70;99.90;;;;;;5045281;28;20132;-84
2023/07/07 08:37:23;;;;;;;0.20;0.20;;;20.80;99.90;;;;;;5050933;28;20103;-85
2023/07/07 08:39:50;;;;;;;0.20;0.20;;;20.90;99.90;;;;;;5031785;28;20155;-85
2023/07/07 08:42:21;;;;;;;0.20;0.20;;;20.90;99.90;;;;;;5031902;28;20073;-86
2023/07/07 08:44:47;;;;;;;0.20;0.20;;;21.00;99.90;;;;;;5025805;28;20041;-85
2023/07/07 08:47:25;;;;;;;0.20;0.20;;;21.20;98.80;;;;;;5028209;28;20607;-86
2023/07/07 08:50:05;;;;;;;0.20;0.20;;;21.20;99.90;;;;;;5028135;28;20059;-86
2023/07/07 08:52:34;;;;;;;0.20;0.20;;;21.20;99.20;;;;;;5028691;28;20037;-87
2023/07/07 08:54:59;;;;;;;0.10;0.10;;;21.40;99.70;;;;;;5030568;28;20045;-83
2023/07/07 08:57:30;;;;;;;0.20;0.20;;;21.40;99.00;;;;;;5029900;28;20040;-85
2023/07/07 09:00:17;;;;;;;;;;;21.40;99.20;;;;;;5028955;28;20099;-93
2023/07/07 09:03:14;;;;;;;0.20;0.20;;;21.50;99.20;;;;;;5024073;28;19921;-94
2023/07/07 09:06:01;;;;;;;0.20;0.20;;;21.50;99.40;;;;;;5031879;28;20049;-83
2023/07/07 09:08:32;;;;;;;0.10;0.10;;;21.60;99.60;;;;;;5033417;28;20073;-86
2023/07/07 09:11:16;;;;;;;0.20;0.20;;;21.60;98.70;;;;;;5039597;28;20041;-87
2023/07/07 09:13:45;;;;;;;0.20;0.20;;;21.70;98.40;;;;;;5029229;28;20037;-91
2023/07/07 09:16:25;;;;;;;0.20;0.20;;;21.80;97.80;;;;;;5031828;28;20092;-92
2023/07/07 09:19:11;;;;;;;0.30;0.30;;;21.90;98.30;;;;;;5052634;28;20105;-93
2023/07/07 09:21:51;;;;;;;0.20;0.20;;;21.90;97.60;;;;;;5053320;28;20041;-92
2023/07/07 09:24:37;;;;;;;0.90;0.30;;;22.00;97.70;;;;;;5049410;28;20029;-93
2023/07/07 09:27:27;;;;;;;0.20;0.20;;;22.00;97.70;;;;;;5036222;28;20052;-91
2023/07/07 09:30:05;;;;;;;0.20;0.20;;;22.00;97.80;;;;;;5052750;28;20037;-92
2023/07/07 09:32:31;;;;;;;0.20;0.20;;;22.10;96.10;;;;;;5044937;28;20055;-91
2023/07/07 09:34:57;;;;;;;0.20;0.20;;;22.10;96.10;;;;;;5048843;28;20427;-93
2023/07/07 09:37:39;;;;;;;0.20;0.20;;;22.20;96.60;;;;;;5052676;28;20056;-92
2023/07/07 09:40:16;;;;;;;0.20;0.20;;;22.20;97.10;;;;;;5045884;28;20120;-93
2023/07/07 09:42:59;;;;;;;0.20;0.20;;;22.20;97.10;;;;;;5060768;28;20056;-91
2023/07/07 09:45:34;;;;;;;0.20;0.20;;;22.30;97.00;;;;;;5066333;28;20037;-92
2023/07/07 09:48:26;;;;;;;0.20;0.20;;;22.30;97.10;;;;;;5062090;28;20400;-92
2023/07/07 09:51:41;;;;;;;0.20;0.20;;;22.30;96.20;;;;;;5040086;28;20053;-93
2023/07/07 09:54:11;;;;;;;0.20;0.20;;;22.30;96.70;;;;;;5000561;28;20524;-90
2023/07/07 09:56:47;;;;;;;0.20;0.20;;;22.40;96.00;;;;;;5065285;28;20053;-93
2023/07/07 09:59:22;;;;;;;0.20;0.20;;;22.40;95.60;;;;;;5064383;28;20151;-87
2023/07/07 10:01:51;;;;;;;0.10;0.10;;;22.50;93.90;;;;;;5053326;28;20080;-89
2023/07/07 10:04:19;;;;;;;0.20;0.20;;;22.60;95.20;;;;;;5049029;28;20056;-89
2023/07/07 10:07:00;;;;;;;0.20;0.20;;;22.60;95.70;;;;;;5061758;28;20091;-92
2023/07/07 10:09:28;;;;;;;0.20;0.20;;;22.70;95.60;;;;;;5058155;28;20060;-89
2023/07/07 10:11:55;;;;;;;0.20;0.20;;;22.70;95.70;;;;;;5068116;28;20049;-92
2023/07/07 10:14:21;;;;;;;0.20;0.20;;;22.70;94.60;;;;;;5072931;28;20033;-92
2023/07/07 10:17:09;;;;;;;0.20;0.20;;;22.80;94.90;;;;;;5052786;28;20078;-92
2023/07/07 10:19:43;;;;;;;0.20;0.20;;;22.80;95.30;;;;;;5055889;28;20057;-92
2023/07/07 10:22:11;;;;;;;0.20;0.20;;;22.80;95.40;;;;;;5046933;28;20045;-92
2023/07/07 10:24:37;;;;;;;0.20;0.20;;;22.80;94.60;;;;;;5042446;28;20052;-91
2023/07/07 10:27:03;;;;;;;0.17;0.17;;;22.80;94.40;;;;;;5047832;28;20040;-89
2023/07/07 10:29:36;;;;;;;0.10;0.10;;;22.90;94.10;;;;;;5053815;28;20041;-91
2023/07/07 10:32:02;;;;;;;0.20;0.20;;;22.90;94.80;;;;;;5050834;28;20053;-92
2023/07/07 10:34:42;;;;;;;0.20;0.20;;;23.00;94.80;;;;;;5030702;28;20052;-91
2023/07/07 10:37:23;;;;;;;0.20;0.20;;;23.10;94.70;;;;;;5043706;28;20488;-92
2023/07/07 10:39:51;;;;;;;0.20;0.20;;;23.10;94.50;;;;;;5050871;28;20078;-91
2023/07/07 10:42:17;;;;;;;0.20;0.20;;;23.20;94.30;;;;;;5031135;28;20452;-91
2023/07/07 10:44:43;;;;;;;0.20;0.20;;;23.30;94.30;;;;;;5030920;28;20064;-87
2023/07/07 10:47:09;;;;;;;0.20;0.20;;;23.40;93.90;;;;;;5032837;28;20579;-92
2023/07/07 10:49:35;;;;;;;0.20;0.20;;;23.50;94.70;;;;;;5026776;28;20049;-87
2023/07/07 10:52:03;;;;;;;0.20;0.20;;;23.60;94.80;;;;;;5041714;28;20076;-90
2023/07/07 10:54:34;;;;;;;0.20;0.20;;;23.60;94.70;;;;;;5049984;28;20057;-89
2023/07/07 10:57:17;;;;;;;0.20;0.20;;;23.70;94.70;;;;;;5033447;28;20046;-88
2023/07/07 11:00:01;;;;;;;0.20;0.20;;;23.80;94.90;;;;;;5035098;28;20033;-92
2023/07/07 11:02:44;;;;;;;0.20;0.20;;;23.80;94.60;;;;;;5059396;28;20040;-93
2023/07/07 11:05:47;;;;;;;0.20;0.20;;;23.90;94.40;;;;;;5035304;28;20072;-92
2023/07/07 11:08:37;;;;;;;0.20;0.20;;;24.00;94.20;;;;;;5013593;28;20046;-91
2023/07/07 11:11:17;;;;;;;0.20;0.20;;;24.10;94.10;;;;;;5035092;28;20073;-91
2023/07/07 11:13:57;;;;;;;0.20;0.20;;;24.30;94.00;;;;;;5053931;28;20063;-88
2023/07/07 11:16:46;;;;;;;0.20;0.20;;;24.40;94.00;;;;;;5024762;28;20400;-86
2023/07/07 11:19:27;;;;;;;0.20;0.20;;;24.50;93.90;;;;;;5032716;28;20048;-88
2023/07/07 11:21:58;;;;;;;0.20;0.20;;;24.70;93.70;;;;;;5024865;28;20063;-89
2023/07/07 11:24:33;;;;;;;0.20;0.20;;;24.80;93.50;;;;;;5035333;28;20120;-91
2023/07/07 11:27:08;;;;;;;0.20;0.20;;;24.90;93.60;;;;;;5049405;28;20041;-88
2023/07/07 11:30:03;;;;;;;0.20;0.20;;;25.00;93.80;;;;;;5024975;28;20224;-88
2023/07/07 11:32:58;;;;;;;0.20;0.20;;;25.10;93.70;;;;;;5010673;28;20102;-89
2023/07/07 11:36:14;;;;;;;0.20;0.20;;;25.20;93.50;;;;;;5032763;28;20049;-94
2023/07/07 11:38:58;;;;;;;0.20;0.20;;;25.40;92.20;;;;;;5057422;28;20041;-91
2023/07/07 11:41:39;;;;;;;0.20;0.20;;;25.50;93.00;;;;;;5045401;28;20116;-92
2023/07/07 11:44:20;;;;;;;0.20;0.20;;;25.70;92.70;;;;;;5040113;28;20033;-91
2023/07/07 11:46:52;;;;;;;0.20;0.20;;;25.70;92.70;;;;;;5047466;28;20049;-90
2023/07/07 11:49:48;;;;;;;0.10;0.10;;;25.80;92.90;;;;;;5044920;28;20045;-89
2023/07/07 11:52:22;;;;;;;0.20;0.20;;;25.90;92.70;;;;;;5032495;28;20114;-94
2023/07/07 11:55:19;;;;;;;0.20;0.20;;;26.10;88.10;;;;;;5061004;28;20056;-93
2023/07/07 11:58:03;;;;;;;0.20;0.20;;;26.10;90.80;;;;;;5051546;28;20063;-92
2023/07/07 12:00:52;;;;;;;0.20;0.20;;;26.10;88.90;;;;;;5053947;28;20127;-94
2023/07/07 12:03:30;;;;;;;0.20;0.20;;;26.30;88.30;;;;;;5047742;28;20102;-93
2023/07/07 12:06:00;;;;;;;0.20;0.20;;;26.40;90.30;;;;;;5056710;28;20066;-92
2023/07/07 12:08:36;;;;;;;0.20;0.20;;;26.50;90.60;;;;;;5055594;28;20037;-92
2023/07/07 12:11:04;;;;;;;0.20;0.20;;;26.70;90.90;;;;;;5052268;28;20056;-93
2023/07/07 12:13:39;;;;;;;0.20;0.20;;;26.80;90.90;;;;;;5071168;28;20041;-92
2023/07/07 12:16:27;;;;;;;0.20;0.20;;;26.90;90.70;;;;;;5074329;28;20132;-92
2023/07/07 12:19:08;;;;;;;0.20;0.20;;;27.00;90.10;;;;;;5044395;28;20041;-93
2023/07/07 12:21:37;;;;;;;0.20;0.20;;;27.00;90.40;;;;;;5066841;28;20033;-91
2023/07/07 12:24:08;;;;;;;0.20;0.20;;;27.20;90.30;;;;;;5053728;28;20503;-91
2023/07/07 12:26:38;;;;;;;0.20;0.20;;;27.30;89.80;;;;;;5050622;28;20049;-93
2023/07/07 12:29:05;;;;;;;0.20;0.20;;;27.40;88.20;;;;;;5057463;28;20056;-93
2023/07/07 12:31:31;;;;;;;0.20;0.20;;;27.40;88.00;;;;;;5059156;28;20073;-91
2023/07/07 12:33:57;;;;;;;0.20;0.20;;;27.50;88.80;;;;;;5039130;28;20246;-86
2023/07/07 12:36:28;;;;;;;0.20;0.20;;;27.60;89.10;;;;;;5048778;28;20427;-92
2023/07/07 12:39:00;;;;;;;0.20;0.20;;;27.70;88.30;;;;;;5054447;28;20072;-90
2023/07/07 12:41:28;;;;;;;0.20;0.20;;;27.80;89.10;;;;;;5046017;28;20045;-90
2023/07/07 12:44:04;;;;;;;0.20;0.20;;;27.90;88.50;;;;;;5042121;28;20037;-91
2023/07/07 12:46:36;;;;;;;0.20;0.20;;;28.00;87.50;;;;;;5047902;28;20040;-92
2023/07/07 12:49:17;;;;;;;0.20;0.20;;;28.10;82.80;;;;;;5049234;28;20396;-93
2023/07/07 12:51:43;;;;;;;0.20;0.20;;;28.00;83.10;;;;;;5051991;28;20444;-89
2023/07/07 12:54:32;;;;;;;0.20;0.20;;;28.10;82.50;;;;;;5051521;28;20834;-88
2023/07/07 12:57:25;;;;;;;0.20;0.20;;;28.10;84.80;;;;;;5051806;28;20059;-90
2023/07/07 12:59:51;;;;;;;0.20;0.20;;;28.20;85.50;;;;;;5051138;28;20049;-87
2023/07/07 13:02:22;;;;;;;0.20;0.20;;;28.30;83.30;;;;;;5044842;28;20498;-86
2023/07/07 13:04:52;;;;;;;0.20;0.20;;;28.40;79.50;;;;;;5049873;28;20053;-86
2023/07/07 13:07:27;;;;;;;0.20;0.20;;;28.30;80.90;;;;;;5050627;28;20084;-91
2023/07/07 13:09:52;;;;;;;0.20;0.20;;;28.40;82.20;;;;;;5049287;28;20067;-90